createdAt,value
2018-04-07T00:00:51.871Z,54.70
2018-04-07T00:03:17.811Z,54.70
2018-04-07T00:05:43.703Z,54.90
2018-04-07T00:08:09.611Z,55.60
2018-04-07T00:10:35.565Z,55.30
2018-04-07T00:13:01.503Z,55.60
2018-04-07T00:15:27.425Z,55.90
2018-04-07T00:17:53.312Z,55.90
2018-04-07T00:20:19.211Z,56.00
2018-04-07T00:22:45.892Z,57.20
2018-04-07T00:25:11.828Z,57.20
2018-04-07T00:27:37.757Z,57.30
2018-04-07T00:30:03.632Z,57.60
2018-04-07T00:32:29.532Z,58.30
2018-04-07T00:34:55.423Z,59.00
2018-04-07T00:37:21.336Z,59.40
2018-04-07T00:39:47.223Z,59.30
2018-04-07T00:42:13.168Z,59.10
2018-04-07T00:44:39.059Z,59.10
2018-04-07T00:47:04.983Z,58.80
2018-04-07T00:49:30.916Z,57.80
2018-04-07T00:51:56.824Z,57.90
2018-04-07T00:54:22.724Z,57.50
2018-04-07T00:56:48.643Z,57.70
2018-04-07T00:59:14.562Z,58.20
2018-04-07T01:01:40.446Z,58.00
2018-04-07T01:04:06.398Z,57.70
2018-04-07T01:06:32.289Z,57.40
2018-04-07T01:08:58.191Z,57.10
2018-04-07T01:11:24.111Z,56.60
2018-04-07T01:13:49.984Z,56.20
2018-04-07T01:16:15.953Z,56.20
2018-04-07T01:18:41.853Z,56.10
2018-04-07T01:21:07.767Z,55.90
2018-04-07T01:23:33.660Z,55.90
2018-04-07T01:25:59.565Z,55.80
2018-04-07T01:28:25.471Z,55.60
2018-04-07T01:30:51.399Z,55.60
2018-04-07T01:33:17.324Z,55.80
2018-04-07T01:35:43.218Z,55.80
2018-04-07T01:38:09.141Z,56.10
2018-04-07T01:40:35.025Z,56.80
2018-04-07T01:43:00.936Z,57.30
2018-04-07T01:45:26.817Z,57.40
2018-04-07T01:47:52.730Z,57.80
2018-04-07T01:50:18.621Z,56.90
2018-04-07T01:52:44.539Z,56.40
2018-04-07T01:55:10.460Z,56.20
2018-04-07T01:57:36.343Z,56.50
2018-04-07T02:00:03.019Z,56.30
2018-04-07T02:02:28.918Z,56.30
2018-04-07T02:04:54.823Z,56.60
2018-04-07T02:07:21.484Z,56.90
2018-04-07T02:09:47.420Z,56.90
2018-04-07T02:12:13.316Z,57.00
2018-04-07T02:14:39.239Z,56.90
2018-04-07T02:17:05.131Z,56.80
2018-04-07T02:19:31.058Z,56.50
2018-04-07T02:21:56.940Z,56.60
2018-04-07T02:24:22.846Z,57.00
2018-04-07T02:26:48.751Z,56.90
2018-04-07T02:29:14.635Z,57.40
2018-04-07T02:31:40.555Z,57.50
2018-04-07T02:34:06.451Z,57.50
2018-04-07T02:36:32.379Z,57.30
2018-04-07T02:38:58.264Z,57.50
2018-04-07T02:41:24.185Z,57.90
2018-04-07T02:43:50.074Z,58.20
2018-04-07T02:46:16.735Z,58.80
2018-04-07T02:48:42.635Z,58.70
2018-04-07T02:51:09.274Z,58.20
2018-04-07T02:53:35.205Z,58.20
2018-04-07T02:56:01.100Z,58.20
2018-04-07T02:58:27.020Z,58.60
2018-04-07T03:00:52.917Z,58.50
2018-04-07T03:03:18.812Z,59.00
2018-04-07T03:05:44.751Z,58.30
2018-04-07T03:08:10.679Z,58.30
2018-04-07T03:10:36.579Z,58.70
2018-04-07T03:13:02.468Z,59.00
2018-04-07T03:15:28.368Z,59.70
2018-04-07T03:17:54.995Z,60.50
2018-04-07T03:20:20.874Z,60.50
2018-04-07T03:22:46.797Z,59.60
2018-04-07T03:25:12.684Z,59.80
2018-04-07T03:27:38.608Z,60.20
2018-04-07T03:30:04.489Z,60.90
2018-04-07T03:32:30.402Z,61.00
2018-04-07T03:34:56.320Z,61.20
2018-04-07T03:37:22.227Z,60.60
2018-04-07T03:39:48.123Z,60.20
2018-04-07T03:42:14.073Z,59.80
2018-04-07T03:44:39.959Z,59.70
2018-04-07T03:47:05.907Z,59.50
2018-04-07T03:49:31.804Z,59.80
2018-04-07T03:51:57.728Z,60.00
2018-04-07T03:54:23.631Z,59.80
2018-04-07T03:56:50.256Z,60.00
2018-04-07T03:59:16.907Z,60.00
2018-04-07T04:01:43.524Z,61.30
2018-04-07T04:04:09.430Z,61.40
2018-04-07T04:06:35.383Z,61.10
2018-04-07T04:09:02.059Z,64.20
2018-04-07T04:11:27.956Z,64.10
2018-04-07T04:13:53.865Z,64.10
2018-04-07T04:16:19.767Z,62.80
2018-04-07T04:18:45.653Z,62.10
2018-04-07T04:21:11.555Z,61.70
2018-04-07T04:23:37.444Z,61.70
2018-04-07T04:26:04.096Z,61.90
2018-04-07T04:28:30.025Z,61.90
2018-04-07T04:30:55.907Z,62.00
2018-04-07T04:33:22.547Z,62.80
2018-04-07T04:35:48.455Z,62.10
2018-04-07T04:38:14.344Z,62.20
2018-04-07T04:40:40.279Z,62.10
2018-04-07T04:43:06.212Z,63.90
2018-04-07T04:45:32.084Z,63.10
2018-04-07T04:47:57.975Z,63.80
2018-04-07T04:50:24.607Z,63.80
2018-04-07T04:52:50.516Z,63.80
2018-04-07T04:55:16.394Z,63.60
2018-04-07T04:57:42.307Z,63.40
2018-04-07T05:00:08.199Z,63.50
2018-04-07T05:02:34.119Z,63.30
2018-04-07T05:05:00.783Z,63.20
2018-04-07T05:07:26.711Z,63.10
2018-04-07T05:09:52.624Z,63.40
2018-04-07T05:12:18.510Z,63.90
2018-04-07T05:14:44.442Z,63.80
2018-04-07T05:17:11.112Z,63.50
2018-04-07T05:19:37.023Z,63.40
2018-04-07T05:22:02.932Z,64.20
2018-04-07T05:24:28.823Z,64.70
2018-04-07T05:26:54.732Z,65.10
2018-04-07T05:29:20.655Z,65.30
2018-04-07T05:31:46.575Z,65.20
2018-04-07T05:34:12.503Z,64.80
2018-04-07T05:36:38.392Z,65.50
2018-04-07T05:39:04.281Z,65.10
2018-04-07T05:41:30.211Z,65.00
2018-04-07T05:43:56.100Z,65.00
2018-04-07T05:46:22.866Z,65.70
2018-04-07T05:48:48.809Z,65.60
2018-04-07T05:51:14.712Z,66.70
2018-04-07T05:53:40.586Z,66.90
2018-04-07T05:56:06.498Z,67.60
2018-04-07T05:58:32.417Z,68.10
2018-04-07T06:00:58.314Z,69.20
2018-04-07T06:03:24.212Z,70.10
2018-04-07T06:05:50.123Z,70.40
2018-04-07T06:08:16.034Z,70.80
2018-04-07T06:10:42.731Z,70.40
2018-04-07T06:13:08.686Z,70.40
2018-04-07T06:15:35.347Z,70.60
2018-04-07T06:18:01.232Z,70.70
2018-04-07T06:20:27.140Z,70.50
2018-04-07T06:22:53.128Z,70.20
2018-04-07T06:25:19.056Z,70.30
2018-04-07T06:27:44.956Z,70.00
2018-04-07T06:30:10.842Z,70.50
2018-04-07T06:32:36.779Z,69.90
2018-04-07T06:35:02.684Z,70.30
2018-04-07T06:37:28.599Z,70.40
2018-04-07T06:39:54.486Z,70.70
2018-04-07T06:42:20.429Z,70.50
2018-04-07T06:44:46.352Z,69.80
2018-04-07T06:47:12.235Z,69.70
2018-04-07T06:49:38.147Z,69.30
2018-04-07T06:52:04.044Z,69.10
2018-04-07T06:54:30.718Z,68.90
2018-04-07T06:56:56.635Z,68.90
2018-04-07T06:59:22.558Z,69.20
2018-04-07T07:01:48.446Z,68.50
2018-04-07T07:04:15.101Z,68.20
2018-04-07T07:06:41.044Z,68.20
2018-04-07T07:09:06.992Z,68.90
2018-04-07T07:11:32.916Z,67.90
2018-04-07T07:13:58.829Z,68.10
2018-04-07T07:16:24.773Z,68.00
2018-04-07T07:18:50.695Z,68.30
2018-04-07T07:21:16.632Z,67.40
2018-04-07T07:23:43.288Z,66.70
2018-04-07T07:26:09.213Z,66.70
2018-04-07T07:28:35.158Z,66.40
2018-04-07T07:31:01.040Z,66.10
2018-04-07T07:33:27.703Z,65.30
2018-04-07T07:35:53.600Z,65.40
2018-04-07T07:38:19.495Z,65.80
2018-04-07T07:40:45.403Z,65.40
2018-04-07T07:43:11.296Z,65.00
2018-04-07T07:45:37.219Z,65.30
2018-04-07T07:48:03.120Z,63.60
2018-04-07T07:50:29.043Z,63.10
2018-04-07T07:52:54.948Z,62.90
2018-04-07T07:55:20.864Z,63.40
2018-04-07T07:57:47.523Z,62.60
2018-04-07T08:00:13.736Z,62.60
2018-04-07T08:02:39.654Z,62.00
2018-04-07T08:05:06.321Z,62.40
2018-04-07T08:07:32.239Z,62.40
2018-04-07T08:09:58.859Z,62.30
2018-04-07T08:12:24.784Z,62.30
2018-04-07T08:14:50.700Z,61.40
2018-04-07T08:17:16.607Z,61.40
2018-04-07T08:19:43.222Z,60.80
2018-04-07T08:22:09.159Z,60.60
2018-04-07T08:24:35.778Z,60.70
2018-04-07T08:27:01.687Z,60.60
2018-04-07T08:29:27.572Z,60.00
2018-04-07T08:31:53.484Z,59.80
2018-04-07T08:34:19.376Z,59.60
2018-04-07T08:36:46.036Z,59.20
2018-04-07T08:39:11.980Z,59.20
2018-04-07T08:41:37.891Z,58.80
2018-04-07T08:44:03.827Z,58.00
2018-04-07T08:46:29.715Z,58.50
2018-04-07T08:48:55.638Z,57.90
2018-04-07T08:51:21.519Z,57.90
2018-04-07T08:53:47.428Z,57.60
2018-04-07T08:56:13.317Z,57.10
2018-04-07T08:58:39.243Z,57.40
2018-04-07T09:01:05.146Z,56.30
2018-04-07T09:03:31.033Z,55.30
2018-04-07T09:05:56.970Z,54.70
2018-04-07T09:08:22.913Z,54.50
2018-04-07T09:10:48.812Z,54.50
2018-04-07T09:13:15.464Z,53.20
2018-04-07T09:15:41.391Z,53.20
2018-04-07T09:18:07.277Z,52.50
2018-04-07T09:20:33.215Z,53.00
2018-04-07T09:22:59.831Z,49.60
2018-04-07T09:25:25.729Z,49.60
2018-04-07T09:27:51.647Z,49.00
2018-04-07T09:30:17.523Z,48.30
2018-04-07T09:32:43.450Z,48.50
2018-04-07T09:35:09.353Z,46.90
2018-04-07T09:37:36.010Z,46.40
2018-04-07T09:40:01.901Z,46.30
2018-04-07T09:42:28.583Z,45.50
2018-04-07T09:44:54.488Z,45.40
2018-04-07T09:47:20.363Z,44.40
2018-04-07T09:49:46.296Z,45.30
2018-04-07T09:52:12.199Z,44.70
2018-04-07T09:54:38.150Z,45.10
2018-04-07T09:57:04.808Z,46.70
2018-04-07T09:59:31.467Z,45.30
2018-04-07T10:01:57.341Z,45.30
2018-04-07T10:04:23.268Z,45.40
2018-04-07T10:06:49.910Z,45.30
2018-04-07T10:09:15.893Z,45.20
2018-04-07T10:11:41.805Z,44.70
2018-04-07T10:14:07.726Z,46.00
2018-04-07T10:16:33.675Z,44.10
2018-04-07T10:18:59.574Z,44.20
2018-04-07T10:21:25.518Z,43.00
2018-04-07T10:23:51.472Z,44.10
2018-04-07T10:26:17.396Z,43.60
2018-04-07T10:28:44.079Z,44.60
2018-04-07T10:31:09.991Z,44.40
2018-04-07T10:33:35.911Z,44.90
2018-04-07T10:36:01.823Z,45.10
2018-04-07T10:38:27.773Z,44.60
2018-04-07T10:40:53.668Z,45.40
2018-04-07T10:43:19.614Z,46.90
2018-04-07T10:45:45.512Z,45.30
2018-04-07T10:48:11.438Z,44.90
2018-04-07T10:50:37.345Z,43.60
2018-04-07T10:53:03.260Z,44.90
2018-04-07T10:55:29.143Z,43.20
2018-04-07T10:57:55.796Z,44.20
2018-04-07T11:00:21.691Z,44.00
2018-04-07T11:02:47.647Z,43.80
2018-04-07T11:05:13.568Z,43.00
2018-04-07T11:07:39.504Z,43.10
2018-04-07T11:10:05.416Z,43.80
2018-04-07T11:12:31.318Z,42.90
2018-04-07T11:14:58.040Z,42.00
2018-04-07T11:17:24.688Z,41.80
2018-04-07T11:19:51.323Z,41.10
2018-04-07T11:22:17.252Z,41.10
2018-04-07T11:24:43.878Z,40.20
2018-04-07T11:27:10.539Z,41.50
2018-04-07T11:29:36.469Z,41.40
2018-04-07T11:32:04.319Z,38.50
2018-04-07T11:34:30.984Z,40.20
2018-04-07T11:36:56.921Z,40.10
2018-04-07T11:39:22.823Z,40.30
2018-04-07T11:41:48.940Z,40.00
2018-04-07T11:44:14.859Z,40.90
2018-04-07T11:46:40.837Z,40.70
2018-04-07T11:49:08.647Z,40.40
2018-04-07T11:51:39.112Z,38.00
2018-04-07T11:54:10.012Z,37.30
2018-04-07T11:56:39.817Z,35.60
2018-04-07T11:59:07.932Z,36.60
2018-04-07T12:01:34.464Z,36.70
2018-04-07T12:04:01.586Z,38.50
2018-04-07T12:06:30.030Z,37.20
2018-04-07T12:08:58.458Z,37.10
2018-04-07T12:11:25.425Z,36.40
2018-04-07T12:13:53.276Z,35.30
2018-04-07T12:16:21.436Z,37.00
2018-04-07T12:18:53.365Z,36.00
2018-04-07T12:31:53.419Z,35.50
2018-04-07T12:34:19.366Z,35.40
2018-04-07T12:36:46.049Z,35.30
2018-04-07T12:39:12.015Z,35.30
2018-04-07T12:41:37.972Z,33.80
2018-04-07T12:44:03.916Z,33.00
2018-04-07T12:46:29.854Z,35.00
2018-04-07T12:48:55.823Z,33.80
2018-04-07T12:51:21.779Z,32.00
2018-04-07T12:53:47.739Z,32.00
2018-04-07T12:56:13.656Z,31.80
2018-04-07T12:58:39.643Z,32.80
2018-04-07T13:01:05.613Z,32.30
2018-04-07T13:03:32.358Z,31.00
2018-04-07T13:05:58.997Z,30.60
2018-04-07T13:08:24.973Z,30.50
2018-04-07T13:10:51.201Z,30.10
2018-04-07T13:34:53.774Z,29.40
2018-04-07T13:37:19.956Z,28.80
2018-04-07T13:39:46.601Z,29.40
2018-04-07T13:42:13.572Z,28.20
2018-04-07T13:44:42.655Z,27.90
2018-04-07T13:47:09.339Z,27.20
2018-04-07T13:49:35.571Z,28.40
2018-04-07T13:52:01.864Z,28.20
2018-04-07T13:54:28.031Z,29.40
2018-04-07T13:56:55.423Z,28.00
2018-04-07T13:59:21.449Z,27.70
2018-04-07T14:01:47.491Z,27.80
2018-04-07T14:04:13.832Z,27.50
2018-04-07T14:06:39.956Z,28.30
2018-04-07T14:09:06.054Z,28.10
2018-04-07T14:11:32.070Z,28.50
2018-04-07T14:13:58.733Z,27.70
2018-04-07T14:16:25.264Z,28.10
2018-04-07T14:18:51.772Z,27.90
2018-04-07T14:21:17.786Z,27.40
2018-04-07T14:23:43.787Z,26.70
2018-04-07T14:26:10.016Z,27.70
2018-04-07T14:28:36.086Z,27.40
2018-04-07T14:31:02.171Z,27.40
2018-04-07T14:33:28.239Z,25.90
2018-04-07T14:35:54.547Z,27.20
2018-04-07T14:38:20.572Z,28.00
2018-04-07T14:40:46.912Z,27.90
2018-04-07T14:43:13.358Z,26.60
2018-04-07T14:45:41.503Z,26.70
2018-04-07T14:48:08.779Z,26.60
2018-04-07T14:50:36.256Z,27.40
2018-04-07T15:00:05.722Z,26.40
2018-04-07T15:02:31.836Z,26.00
2018-04-07T15:04:58.035Z,27.70
2018-04-07T15:07:27.900Z,26.00
2018-04-07T15:09:54.139Z,25.90
2018-04-07T15:12:20.524Z,26.70
2018-04-07T15:14:46.767Z,27.70
2018-04-07T15:17:13.035Z,26.80
2018-04-07T15:19:39.837Z,28.60
2018-04-07T15:22:05.936Z,28.50
2018-04-07T15:24:32.033Z,27.80
2018-04-07T15:26:58.051Z,27.90
2018-04-07T15:29:24.064Z,27.60
2018-04-07T15:31:50.048Z,27.80
2018-04-07T15:34:16.080Z,28.40
2018-04-07T15:36:42.079Z,27.60
2018-04-07T15:39:08.206Z,27.50
2018-04-07T15:41:34.178Z,26.60
2018-04-07T15:44:00.477Z,27.80
2018-04-07T15:46:26.641Z,28.00
2018-04-07T15:48:52.683Z,28.80
2018-04-07T15:51:18.811Z,28.00
2018-04-07T15:53:44.777Z,29.30
2018-04-07T15:56:11.485Z,28.40
2018-04-07T15:58:38.237Z,28.40
2018-04-07T16:01:04.643Z,28.70
2018-04-07T16:03:31.159Z,28.50
2018-04-07T16:06:01.633Z,28.90
2018-04-07T16:32:51.877Z,29.70
2018-04-07T16:35:20.396Z,29.40
2018-04-07T16:41:17.378Z,29.70
2018-04-07T16:43:44.002Z,31.00
2018-04-07T16:46:09.909Z,31.00
2018-04-07T16:48:35.812Z,30.80
2018-04-07T16:51:01.719Z,31.70
2018-04-07T16:53:27.648Z,32.50
2018-04-07T16:55:53.576Z,32.60
2018-04-07T16:58:19.527Z,32.80
2018-04-07T17:00:46.209Z,33.00
2018-04-07T17:03:12.132Z,32.90
2018-04-07T17:05:38.061Z,33.40
2018-04-07T17:08:03.993Z,33.20
2018-04-07T17:10:29.888Z,33.90
2018-04-07T17:12:55.806Z,34.40
2018-04-07T17:15:21.728Z,34.30
2018-04-07T17:17:47.649Z,34.20
2018-04-07T17:20:13.530Z,35.00
2018-04-07T17:22:39.475Z,35.10
2018-04-07T17:25:05.380Z,35.50
2018-04-07T17:27:32.022Z,35.70
2018-04-07T17:29:57.941Z,35.60
2018-04-07T17:32:24.595Z,35.90
2018-04-07T17:34:50.516Z,35.90
2018-04-07T17:37:16.407Z,36.10
2018-04-07T17:39:42.343Z,36.40
2018-04-07T17:42:08.244Z,36.90
2018-04-07T17:44:34.180Z,36.60
2018-04-07T17:47:00.089Z,35.60
2018-04-07T17:49:26.032Z,35.60
2018-04-07T17:51:51.940Z,35.40
2018-04-07T17:54:17.811Z,35.00
2018-04-07T17:56:43.727Z,35.80
2018-04-07T17:59:09.655Z,35.30
2018-04-07T18:01:35.588Z,35.50
2018-04-07T18:04:01.528Z,35.10
2018-04-07T18:06:27.451Z,35.20
2018-04-07T18:08:53.375Z,35.10
2018-04-07T18:11:19.299Z,35.40
2018-04-07T18:13:45.189Z,35.50
2018-04-07T18:16:11.150Z,35.40
2018-04-07T18:18:37.777Z,35.50
2018-04-07T18:21:04.818Z,34.90
2018-04-07T18:23:30.712Z,35.30
2018-04-07T18:25:56.623Z,35.00
2018-04-07T18:28:22.532Z,35.20
2018-04-07T18:30:48.476Z,35.10
2018-04-07T18:33:14.413Z,35.30
2018-04-07T18:35:40.327Z,35.40
2018-04-07T18:38:06.240Z,35.30
2018-04-07T18:40:32.140Z,35.20
2018-04-07T18:42:58.070Z,35.70
2018-04-07T18:45:23.996Z,35.30
2018-04-07T18:47:49.899Z,35.00
2018-04-07T18:50:15.860Z,35.20
2018-04-07T18:52:41.747Z,35.00
2018-04-07T18:55:07.671Z,35.00
2018-04-07T18:57:33.621Z,34.80
2018-04-07T18:59:59.539Z,35.00
2018-04-07T19:02:25.469Z,34.90
2018-04-07T19:04:51.356Z,34.70
2018-04-07T19:07:17.300Z,34.80
2018-04-07T19:09:43.258Z,35.30
2018-04-07T19:12:09.884Z,35.80
2018-04-07T19:14:36.602Z,35.40
2018-04-07T19:17:02.525Z,35.20
2018-04-07T19:19:28.461Z,35.50
2018-04-07T19:21:54.377Z,35.20
2018-04-07T19:24:20.335Z,35.60
2018-04-07T19:26:46.235Z,35.50
2018-04-07T19:29:12.907Z,35.60
2018-04-07T19:31:38.804Z,35.60
2018-04-07T19:34:05.514Z,35.90
2018-04-07T19:36:31.465Z,35.90
2018-04-07T19:38:57.405Z,36.10
2018-04-07T19:41:23.372Z,36.30
2018-04-07T19:43:49.300Z,35.80
2018-04-07T19:46:15.224Z,36.30
2018-04-07T19:48:41.128Z,36.20
2018-04-07T19:51:07.064Z,36.80
2018-04-07T19:53:32.985Z,36.90
2018-04-07T19:55:58.918Z,37.00
2018-04-07T19:58:24.860Z,37.10
2018-04-07T20:00:51.521Z,37.00
2018-04-07T20:03:18.224Z,37.00
2018-04-07T20:05:44.113Z,37.00
2018-04-07T20:08:10.028Z,37.00
2018-04-07T20:10:35.941Z,36.80
2018-04-07T20:13:01.879Z,37.00
2018-04-07T20:15:27.812Z,37.00
2018-04-07T20:17:53.738Z,36.90
2018-04-07T20:20:20.448Z,36.70
2018-04-07T20:22:46.345Z,36.70
2018-04-07T20:25:12.338Z,36.80
2018-04-07T20:27:39.032Z,36.80
2018-04-07T20:30:04.943Z,36.70
2018-04-07T20:32:30.897Z,36.90
2018-04-07T20:34:56.845Z,37.00
2018-04-07T20:37:24.113Z,36.90
2018-04-07T20:39:50.052Z,37.50
2018-04-07T20:42:16.020Z,37.00
2018-04-07T20:44:41.971Z,36.90
2018-04-07T20:47:07.889Z,37.50
2018-04-07T20:49:33.828Z,37.00
2018-04-07T20:51:59.722Z,37.20
2018-04-07T20:54:25.717Z,37.40
2018-04-07T20:56:51.620Z,37.40
2018-04-07T20:59:17.509Z,37.50
2018-04-07T21:01:43.448Z,37.70
2018-04-07T21:04:09.368Z,37.80
2018-04-07T21:06:35.293Z,37.60
2018-04-07T21:09:01.240Z,37.90
2018-04-07T21:11:27.193Z,38.00
2018-04-07T21:13:53.872Z,38.50
2018-04-07T21:16:19.832Z,38.50
2018-04-07T21:18:45.742Z,38.70
2018-04-07T21:21:11.653Z,38.40
2018-04-07T21:23:37.602Z,38.70
2018-04-07T21:26:03.553Z,38.70
2018-04-07T21:28:29.472Z,38.60
2018-04-07T21:30:55.384Z,38.70
2018-04-07T21:33:21.312Z,38.80
2018-04-07T21:35:47.232Z,39.30
2018-04-07T21:38:13.180Z,39.40
2018-04-07T21:40:39.083Z,39.30
2018-04-07T21:43:05.000Z,39.40
2018-04-07T21:45:30.904Z,39.70
2018-04-07T21:47:56.812Z,39.70
2018-04-07T21:50:22.711Z,39.50
2018-04-07T21:52:48.645Z,39.40
2018-04-07T21:55:14.619Z,39.60
2018-04-07T21:57:40.528Z,39.70
2018-04-07T22:00:07.200Z,39.90
2018-04-07T22:02:33.173Z,39.90
2018-04-07T22:04:59.069Z,39.90
2018-04-07T22:07:25.083Z,40.10
2018-04-07T22:09:51.072Z,40.50
2018-04-07T22:12:16.984Z,40.60
2018-04-07T22:14:42.948Z,40.50
2018-04-07T22:17:08.852Z,40.80
2018-04-07T22:19:34.752Z,40.70
2018-04-07T22:22:00.673Z,40.90
2018-04-07T22:24:26.588Z,40.80
2018-04-07T22:26:52.540Z,41.00
2018-04-07T22:29:18.446Z,40.90
2018-04-07T22:31:44.391Z,40.90
2018-04-07T22:34:10.302Z,41.10
2018-04-07T22:36:36.239Z,41.00
2018-04-07T22:39:02.131Z,40.90
2018-04-07T22:41:28.029Z,40.90
2018-04-07T22:43:53.921Z,41.10
2018-04-07T22:46:20.620Z,42.10
2018-04-07T22:48:46.532Z,42.00
2018-04-07T22:51:12.406Z,41.80
2018-04-07T22:53:39.079Z,42.30
2018-04-07T22:56:04.960Z,42.20
2018-04-07T22:58:31.620Z,42.30
2018-04-07T23:00:57.519Z,41.90
2018-04-07T23:03:23.440Z,42.10
2018-04-07T23:05:50.130Z,42.60
2018-04-07T23:08:16.097Z,42.50
2018-04-07T23:10:42.006Z,42.90
2018-04-07T23:13:07.892Z,43.20
2018-04-07T23:15:33.848Z,43.10
2018-04-07T23:17:59.739Z,42.90
2018-04-07T23:20:25.683Z,43.00
2018-04-07T23:22:51.572Z,43.00
2018-04-07T23:25:17.504Z,43.40
2018-04-07T23:27:43.395Z,43.80
2018-04-07T23:30:09.296Z,44.10
2018-04-07T23:32:35.947Z,44.60
2018-04-07T23:35:01.938Z,44.60
2018-04-07T23:37:28.575Z,44.40
2018-04-07T23:39:54.515Z,44.40
2018-04-07T23:42:21.171Z,44.70
2018-04-07T23:44:47.119Z,44.70
2018-04-07T23:47:13.023Z,44.80
2018-04-07T23:49:38.911Z,45.60
2018-04-07T23:52:05.626Z,45.90
2018-04-07T23:54:31.522Z,45.90
2018-04-07T23:56:57.426Z,45.80
2018-04-07T23:59:23.328Z,45.50
